createdAt,value
2019-03-26T00:01:59.414Z,98259.09
2019-03-26T00:04:06.094Z,98259.41
2019-03-26T00:06:02.720Z,98262.74
2019-03-26T00:08:04.327Z,98266.09
2019-03-26T00:10:05.924Z,98262.14
2019-03-26T00:12:07.495Z,98268.05
2019-03-26T00:14:09.080Z,98274.78
2019-03-26T00:16:10.674Z,98274.29
2019-03-26T00:18:12.284Z,98278.13
2019-03-26T00:20:13.875Z,98286.63
2019-03-26T00:22:15.491Z,98289.18
2019-03-26T00:24:17.127Z,98287.47
2019-03-26T00:26:18.750Z,98289.18
2019-03-26T00:28:20.355Z,98287.52
2019-03-26T00:30:21.929Z,98294.34
2019-03-26T00:32:23.827Z,98291.38
2019-03-26T00:34:25.220Z,98292.70
2019-03-26T00:36:26.832Z,98298.27
2019-03-26T00:38:28.490Z,98294.91
2019-03-26T00:40:30.096Z,98293.73
2019-03-26T00:42:31.710Z,98293.81
2019-03-26T00:44:33.319Z,98304.48
2019-03-26T00:46:34.944Z,98297.34
2019-03-26T00:48:36.528Z,98305.94
2019-03-26T00:50:38.112Z,98308.17
2019-03-26T00:52:39.723Z,98303.13
2019-03-26T00:54:41.316Z,98252.59
2019-03-26T00:56:42.895Z,98305.42
2019-03-26T00:58:44.502Z,98297.83
2019-03-26T01:00:46.112Z,98302.17
2019-03-26T01:02:47.686Z,98257.66
2019-03-26T01:04:49.283Z,98304.89
2019-03-26T01:06:50.879Z,98301.06
2019-03-26T01:08:52.534Z,98304.58
2019-03-26T01:10:54.133Z,98310.97
2019-03-26T01:12:55.743Z,98317.37
2019-03-26T01:14:57.334Z,98312.73
2019-03-26T01:16:58.945Z,98317.79
2019-03-26T01:19:00.592Z,98323.32
2019-03-26T01:21:02.201Z,98321.63
2019-03-26T01:23:03.781Z,98333.45
2019-03-26T01:25:05.371Z,98331.06
2019-03-26T01:27:06.962Z,98334.36
2019-03-26T01:29:08.550Z,98330.42
2019-03-26T01:31:10.142Z,98333.69
2019-03-26T01:33:11.764Z,98335.83
2019-03-26T01:35:13.348Z,98336.27
2019-03-26T01:37:15.088Z,98340.47
2019-03-26T01:39:16.676Z,98344.24
2019-03-26T01:41:18.280Z,98343.33
2019-03-26T01:43:19.932Z,98353.09
2019-03-26T01:45:21.539Z,98343.33
2019-03-26T01:47:23.148Z,98349.72
2019-03-26T01:49:24.793Z,98354.79
2019-03-26T01:51:26.407Z,98355.95
2019-03-26T01:53:27.992Z,98357.22
2019-03-26T01:55:29.566Z,98361.44
2019-03-26T01:57:31.176Z,98361.02
2019-03-26T01:59:32.800Z,98361.92
2019-03-26T02:01:34.416Z,98361.49
2019-03-26T02:03:36.007Z,98361.50
2019-03-26T02:05:37.588Z,98352.67
2019-03-26T02:07:39.196Z,98358.20
2019-03-26T02:09:40.856Z,98354.00
2019-03-26T02:11:42.447Z,98361.36
2019-03-26T02:13:44.032Z,98363.93
2019-03-26T02:15:45.620Z,98358.44
2019-03-26T02:17:47.214Z,98363.13
2019-03-26T02:19:48.790Z,98361.53
2019-03-26T02:21:50.372Z,98361.59
2019-03-26T02:23:52.001Z,98353.55
2019-03-26T02:25:53.607Z,98351.91
2019-03-26T02:27:55.218Z,98360.48
2019-03-26T02:29:56.803Z,98361.79
2019-03-26T02:31:58.444Z,98369.09
2019-03-26T02:34:00.068Z,98362.80
2019-03-26T02:36:01.714Z,98369.20
2019-03-26T02:38:03.333Z,98374.36
2019-03-26T02:40:04.920Z,98374.79
2019-03-26T02:42:06.545Z,98379.05
2019-03-26T02:44:08.173Z,98378.63
2019-03-26T02:46:09.798Z,98382.45
2019-03-26T02:48:11.421Z,98376.43
2019-03-26T02:50:13.012Z,98376.38
2019-03-26T02:52:14.643Z,98377.13
2019-03-26T02:54:16.261Z,98383.92
2019-03-26T02:56:17.866Z,98388.94
2019-03-26T02:58:19.483Z,98379.50
2019-03-26T03:00:21.075Z,98377.74
2019-03-26T03:02:22.745Z,98379.77
2019-03-26T03:04:24.342Z,98376.22
2019-03-26T03:06:25.930Z,98379.09
2019-03-26T03:08:27.515Z,98383.30
2019-03-26T03:10:29.102Z,98383.19
2019-03-26T03:12:30.727Z,98383.08
2019-03-26T03:14:32.339Z,98377.58
2019-03-26T03:16:34.007Z,98382.17
2019-03-26T03:18:35.629Z,98377.46
2019-03-26T03:20:37.227Z,98375.77
2019-03-26T03:22:38.867Z,98389.05
2019-03-26T03:24:40.472Z,98397.69
2019-03-26T03:26:42.086Z,98387.13
2019-03-26T03:28:43.750Z,98387.16
2019-03-26T03:30:45.337Z,98390.66
2019-03-26T03:32:46.993Z,98398.40
2019-03-26T03:34:48.590Z,98401.88
2019-03-26T03:36:50.185Z,98403.27
2019-03-26T03:38:51.821Z,98400.77
2019-03-26T03:40:53.437Z,98394.91
2019-03-26T03:42:55.390Z,98391.55
2019-03-26T03:44:57.003Z,98395.45
2019-03-26T03:46:58.630Z,98395.09
2019-03-26T03:49:00.261Z,98400.68
2019-03-26T03:51:01.852Z,98401.25
2019-03-26T03:53:03.436Z,98396.62
2019-03-26T03:55:05.067Z,98398.86
2019-03-26T03:57:06.679Z,98396.35
2019-03-26T03:59:08.329Z,98395.13
2019-03-26T04:01:09.969Z,98400.72
2019-03-26T04:03:11.624Z,98397.27
2019-03-26T04:05:13.243Z,98402.37
2019-03-26T04:07:14.893Z,98396.72
2019-03-26T04:09:16.507Z,98397.06
2019-03-26T04:11:18.157Z,98395.77
2019-03-26T04:13:19.748Z,98388.47
2019-03-26T04:15:21.346Z,98389.66
2019-03-26T04:17:22.932Z,98396.30
2019-03-26T04:19:24.556Z,98404.77
2019-03-26T04:21:26.211Z,98406.72
2019-03-26T04:23:27.821Z,98408.74
2019-03-26T04:25:29.431Z,98409.48
2019-03-26T04:27:31.080Z,98411.88
2019-03-26T04:29:32.694Z,98423.66
2019-03-26T04:31:34.320Z,98405.42
2019-03-26T04:33:35.921Z,98424.66
2019-03-26T04:35:37.528Z,98416.96
2019-03-26T04:37:39.157Z,98421.17
2019-03-26T04:39:40.730Z,98427.52
2019-03-26T04:41:42.348Z,98424.16
2019-03-26T04:43:43.950Z,98428.05
2019-03-26T04:45:45.522Z,98431.05
2019-03-26T04:47:47.127Z,98438.00
2019-03-26T04:49:48.736Z,98439.37
2019-03-26T04:51:50.363Z,98439.92
2019-03-26T04:53:51.948Z,98442.63
2019-03-26T04:55:53.518Z,98449.14
2019-03-26T04:57:55.125Z,98443.72
2019-03-26T04:59:56.712Z,98448.94
2019-03-26T05:01:58.320Z,98449.46
2019-03-26T05:03:59.927Z,98448.71
2019-03-26T05:06:01.531Z,98448.78
2019-03-26T05:08:03.128Z,98454.44
2019-03-26T05:10:04.717Z,98444.25
2019-03-26T05:12:06.327Z,98446.39
2019-03-26T05:14:07.934Z,98437.96
2019-03-26T05:16:09.544Z,98443.12
2019-03-26T05:18:11.157Z,98455.53
2019-03-26T05:20:12.734Z,98445.03
2019-03-26T05:22:23.642Z,98456.63
2019-03-26T05:24:16.015Z,98453.74
2019-03-26T05:26:17.640Z,98450.42
2019-03-26T05:28:19.244Z,98448.77
2019-03-26T05:30:20.851Z,98454.73
2019-03-26T05:32:22.500Z,98450.47
2019-03-26T05:34:25.106Z,98459.80
2019-03-26T05:36:26.709Z,98466.09
2019-03-26T05:38:28.340Z,98464.67
2019-03-26T05:40:29.922Z,98467.89
2019-03-26T05:42:31.508Z,98461.73
2019-03-26T05:44:33.155Z,98462.86
2019-03-26T05:46:34.756Z,98466.91
2019-03-26T05:48:36.380Z,98470.11
2019-03-26T05:50:37.979Z,98464.07
2019-03-26T05:52:39.577Z,98466.85
2019-03-26T05:54:41.199Z,98461.61
2019-03-26T05:56:42.783Z,98465.34
2019-03-26T05:58:44.411Z,98458.88
2019-03-26T06:00:46.021Z,98463.09
2019-03-26T06:02:47.632Z,98454.50
2019-03-26T06:04:49.279Z,98460.31
2019-03-26T06:07:03.954Z,98460.73
2019-03-26T06:08:52.576Z,98458.61
2019-03-26T06:10:54.160Z,98453.48
2019-03-26T06:12:55.896Z,98462.80
2019-03-26T06:14:57.540Z,98450.06
2019-03-26T06:16:59.131Z,98457.86
2019-03-26T06:19:00.748Z,98455.37
2019-03-26T06:21:02.327Z,98457.62
2019-03-26T06:23:03.969Z,98461.98
2019-03-26T06:25:05.557Z,98470.21
2019-03-26T06:27:07.163Z,98465.68
2019-03-26T06:29:08.808Z,98457.26
2019-03-26T06:31:10.412Z,98463.75
2019-03-26T06:33:12.062Z,98461.30
2019-03-26T06:35:13.634Z,98461.31
2019-03-26T06:37:18.101Z,98459.75
2019-03-26T06:39:16.892Z,98451.81
2019-03-26T06:41:18.477Z,98454.10
2019-03-26T06:43:20.083Z,98450.73
2019-03-26T06:45:21.762Z,98449.09
2019-03-26T06:47:23.376Z,98450.89
2019-03-26T06:49:24.986Z,98448.81
2019-03-26T06:51:26.695Z,98448.91
2019-03-26T06:53:29.010Z,98446.83
2019-03-26T06:55:30.604Z,98442.66
2019-03-26T06:57:35.749Z,98438.40
2019-03-26T06:59:33.883Z,98443.94
2019-03-26T07:01:35.505Z,98446.50
2019-03-26T07:03:37.082Z,98444.75
2019-03-26T07:05:38.690Z,98452.37
2019-03-26T07:07:40.312Z,98450.09
2019-03-26T07:09:41.901Z,98446.34
2019-03-26T07:11:43.543Z,98445.58
2019-03-26T07:13:45.130Z,98444.25
2019-03-26T07:15:46.716Z,98447.06
2019-03-26T07:17:48.356Z,98446.75
2019-03-26T07:19:49.945Z,98449.52
2019-03-26T07:21:51.542Z,98447.16
2019-03-26T07:23:53.159Z,98452.55
2019-03-26T07:25:54.779Z,98437.87
2019-03-26T07:27:56.553Z,98437.70
2019-03-26T07:29:58.172Z,98433.80
2019-03-26T07:31:59.783Z,98437.59
2019-03-26T07:34:01.396Z,98431.47
2019-03-26T07:36:03.012Z,98447.64
2019-03-26T07:38:04.660Z,98448.02
2019-03-26T07:40:06.248Z,98455.30
2019-03-26T07:42:07.862Z,98449.77
2019-03-26T07:44:09.483Z,98449.78
2019-03-26T07:46:11.102Z,98447.75
2019-03-26T07:48:12.716Z,98459.33
2019-03-26T07:50:14.364Z,98454.39
2019-03-26T07:52:15.978Z,98456.64
2019-03-26T07:54:17.639Z,98454.63
2019-03-26T07:56:19.249Z,98456.27
2019-03-26T07:58:20.860Z,98450.08
2019-03-26T08:00:22.512Z,98449.83
2019-03-26T08:02:24.132Z,98462.20
2019-03-26T08:04:25.769Z,98459.88
2019-03-26T08:06:27.360Z,98454.55
2019-03-26T08:08:28.974Z,98456.41
2019-03-26T08:10:30.572Z,98450.17
2019-03-26T08:12:32.974Z,98461.78
2019-03-26T08:14:33.883Z,98449.47
2019-03-26T08:16:35.501Z,98444.45
2019-03-26T08:18:37.134Z,98439.88
2019-03-26T08:20:38.788Z,98446.35
2019-03-26T08:22:40.389Z,98442.61
2019-03-26T08:24:42.000Z,98448.91
2019-03-26T08:26:43.611Z,98442.48
2019-03-26T08:28:45.197Z,98453.22
2019-03-26T08:30:49.894Z,98444.80
2019-03-26T08:32:48.456Z,98462.78
2019-03-26T08:34:50.064Z,98443.80
2019-03-26T08:36:51.654Z,98443.75
2019-03-26T08:38:53.265Z,98445.89
2019-03-26T08:40:54.916Z,98438.16
2019-03-26T08:42:56.671Z,98447.02
2019-03-26T08:44:58.280Z,98438.81
2019-03-26T08:46:59.890Z,98442.49
2019-03-26T08:49:01.504Z,98437.66
2019-03-26T08:51:03.160Z,98452.46
2019-03-26T08:53:04.773Z,98453.63
2019-03-26T08:55:06.380Z,98453.52
2019-03-26T08:57:08.023Z,98459.33
2019-03-26T08:59:09.632Z,98461.36
2019-03-26T09:01:11.244Z,98449.36
2019-03-26T09:03:12.896Z,98459.97
2019-03-26T09:05:14.523Z,98466.30
2019-03-26T09:07:16.152Z,98465.47
2019-03-26T09:09:17.740Z,98470.58
2019-03-26T09:11:19.348Z,98463.75
2019-03-26T09:13:20.951Z,98461.67
2019-03-26T09:15:22.529Z,98470.63
2019-03-26T09:17:24.122Z,98454.70
2019-03-26T09:19:25.743Z,98454.46
2019-03-26T09:21:27.332Z,98462.97
2019-03-26T09:23:28.916Z,98465.48
2019-03-26T09:25:30.515Z,98468.05
2019-03-26T09:27:32.131Z,98473.17
2019-03-26T09:29:33.725Z,98471.56
2019-03-26T09:31:35.309Z,98484.73
2019-03-26T09:33:36.916Z,98477.19
2019-03-26T09:35:38.525Z,98470.75
2019-03-26T09:37:40.120Z,98465.84
2019-03-26T09:39:41.744Z,98472.30
2019-03-26T09:41:43.329Z,98472.97
2019-03-26T09:43:44.939Z,98476.20
2019-03-26T09:45:46.522Z,98468.06
2019-03-26T09:47:48.167Z,98455.28
2019-03-26T09:49:49.793Z,98477.45
2019-03-26T09:51:51.438Z,98471.09
2019-03-26T09:53:53.038Z,98476.63
2019-03-26T09:55:54.633Z,98472.42
2019-03-26T09:57:56.459Z,98472.80
2019-03-26T09:59:58.084Z,98427.52
2019-03-26T10:01:59.694Z,98452.69
2019-03-26T10:04:01.320Z,98459.88
2019-03-26T10:06:04.307Z,98460.73
2019-03-26T10:08:05.896Z,98470.96
2019-03-26T10:10:07.535Z,98476.50
2019-03-26T10:12:09.133Z,98468.83
2019-03-26T10:14:10.732Z,98473.91
2019-03-26T10:16:12.345Z,98471.34
2019-03-26T10:18:13.929Z,98472.62
2019-03-26T10:20:15.548Z,98489.28
2019-03-26T10:22:19.897Z,98478.24
2019-03-26T10:24:18.800Z,98486.77
2019-03-26T10:26:20.408Z,98479.95
2019-03-26T10:28:22.055Z,98487.62
2019-03-26T10:30:24.876Z,98477.01
2019-03-26T10:32:25.306Z,98482.98
2019-03-26T10:34:26.948Z,98477.02
2019-03-26T10:36:28.543Z,98466.79
2019-03-26T10:38:30.161Z,98479.14
2019-03-26T10:40:31.744Z,98471.48
2019-03-26T10:42:33.450Z,98474.03
2019-03-26T10:44:35.008Z,98459.16
2019-03-26T10:46:36.614Z,98465.09
2019-03-26T10:48:38.202Z,98474.88
2019-03-26T10:50:39.783Z,98471.94
2019-03-26T10:52:41.403Z,98455.89
2019-03-26T10:54:43.011Z,98487.62
2019-03-26T10:56:44.636Z,98479.91
2019-03-26T10:58:46.310Z,98481.61
2019-03-26T11:00:49.053Z,98476.50
2019-03-26T11:02:53.910Z,98481.14
2019-03-26T11:04:52.268Z,98484.50
2019-03-26T11:06:53.871Z,98472.48
2019-03-26T11:08:55.471Z,98466.52
2019-03-26T11:10:57.060Z,98462.05
2019-03-26T11:12:58.662Z,98461.45
2019-03-26T11:15:00.387Z,98456.56
2019-03-26T11:17:01.883Z,98455.34
2019-03-26T11:19:03.473Z,98457.98
2019-03-26T11:21:05.061Z,98469.94
2019-03-26T11:23:06.694Z,98474.04
2019-03-26T11:25:08.335Z,98457.98
2019-03-26T11:27:09.929Z,98457.23
2019-03-26T11:29:11.532Z,98458.19
2019-03-26T11:31:13.120Z,98463.81
2019-03-26T11:33:14.708Z,98453.60
2019-03-26T11:35:16.294Z,98459.99
2019-03-26T11:37:17.866Z,98455.39
2019-03-26T11:39:31.852Z,98461.36
2019-03-26T11:41:21.120Z,98440.48
2019-03-26T11:43:22.704Z,98438.40
2019-03-26T11:45:24.328Z,98436.09
2019-03-26T11:47:25.916Z,98445.79
2019-03-26T11:49:27.532Z,98411.19
2019-03-26T11:51:29.116Z,98436.13
2019-03-26T11:53:30.701Z,98426.39
2019-03-26T11:55:32.336Z,98429.03
2019-03-26T11:57:33.919Z,98430.78
2019-03-26T11:59:35.486Z,98426.52
2019-03-26T12:01:37.074Z,98431.25
2019-03-26T12:03:38.648Z,98425.29
2019-03-26T12:05:40.268Z,98424.86
2019-03-26T12:07:43.075Z,98426.14
2019-03-26T12:09:46.647Z,98426.57
2019-03-26T12:11:45.124Z,98427.80
2019-03-26T12:13:46.736Z,98424.34
2019-03-26T12:15:48.374Z,98423.44
2019-03-26T12:17:49.980Z,98417.05
2019-03-26T12:19:51.587Z,98412.84
2019-03-26T12:21:53.172Z,98419.23
2019-03-26T12:23:54.757Z,98412.03
2019-03-26T12:25:56.400Z,98419.70
2019-03-26T12:27:57.990Z,98411.62
2019-03-26T12:29:59.645Z,98406.93
2019-03-26T12:32:01.234Z,98405.69
2019-03-26T12:34:02.837Z,98365.30
2019-03-26T12:36:04.474Z,98403.95
2019-03-26T12:38:06.150Z,98404.41
2019-03-26T12:40:07.941Z,98407.79
2019-03-26T12:42:09.560Z,98397.98
2019-03-26T12:44:11.153Z,98400.06
2019-03-26T12:46:12.736Z,98386.43
2019-03-26T12:48:14.335Z,98403.42
2019-03-26T12:50:15.917Z,98398.50
2019-03-26T12:52:17.502Z,98389.27
2019-03-26T12:54:19.117Z,98381.61
2019-03-26T12:56:20.731Z,98390.98
2019-03-26T12:58:31.829Z,98385.15
2019-03-26T13:00:23.972Z,98379.64
2019-03-26T13:02:25.579Z,98381.02
2019-03-26T13:04:27.169Z,98370.14
2019-03-26T13:06:28.774Z,98377.91
2019-03-26T13:08:30.476Z,98368.59
2019-03-26T13:10:32.065Z,98361.40
2019-03-26T13:12:33.676Z,98361.41
2019-03-26T13:14:35.284Z,98361.44
2019-03-26T13:16:36.924Z,98359.27
2019-03-26T13:18:38.584Z,98367.52
2019-03-26T13:20:40.171Z,98356.02
2019-03-26T13:22:41.792Z,98353.59
2019-03-26T13:24:43.391Z,98362.20
2019-03-26T13:26:44.980Z,98360.16
2019-03-26T13:28:46.593Z,98358.47
2019-03-26T13:30:48.210Z,98365.72
2019-03-26T13:32:49.842Z,98371.77
2019-03-26T13:34:51.452Z,98359.00
2019-03-26T13:36:53.062Z,98373.89
2019-03-26T13:38:54.665Z,98373.52
2019-03-26T13:40:56.261Z,98371.02
2019-03-26T13:42:57.847Z,98358.25
2019-03-26T13:44:59.428Z,98358.76
2019-03-26T13:47:01.016Z,98364.72
2019-03-26T13:49:02.622Z,98361.31
2019-03-26T13:51:04.212Z,98349.39
2019-03-26T13:53:05.815Z,98359.23
2019-03-26T13:55:07.641Z,98357.53
2019-03-26T13:57:09.246Z,98353.27
2019-03-26T13:59:11.838Z,98356.81
2019-03-26T14:01:13.443Z,98349.90
2019-03-26T14:03:15.068Z,98357.39
2019-03-26T14:05:17.868Z,98307.27
2019-03-26T14:07:19.454Z,98364.77
2019-03-26T14:09:21.038Z,98372.05
2019-03-26T14:11:22.620Z,98364.82
2019-03-26T14:13:24.200Z,98367.42
2019-03-26T14:15:25.766Z,98368.70
2019-03-26T14:17:27.391Z,98381.04
2019-03-26T14:19:28.980Z,98373.86
2019-03-26T14:21:30.568Z,98370.83
2019-03-26T14:23:32.192Z,98365.29
2019-03-26T14:25:33.772Z,98365.28
2019-03-26T14:27:35.423Z,98374.61
2019-03-26T14:29:37.038Z,98369.93
2019-03-26T14:31:38.868Z,98336.16
2019-03-26T14:33:50.362Z,98367.89
2019-03-26T14:35:51.954Z,98364.48
2019-03-26T14:37:53.592Z,98357.30
2019-03-26T14:39:55.202Z,98367.11
2019-03-26T14:41:56.787Z,98354.47
2019-03-26T14:43:58.376Z,98360.00
2019-03-26T14:46:00.100Z,98352.81
2019-03-26T14:48:01.666Z,98347.70
2019-03-26T14:50:03.268Z,98348.56
2019-03-26T14:52:04.856Z,98351.96
2019-03-26T14:54:06.480Z,98347.28
2019-03-26T14:56:08.105Z,98347.27
2019-03-26T14:58:09.873Z,98342.98
2019-03-26T15:00:11.457Z,98338.34
2019-03-26T15:02:13.040Z,98342.55
2019-03-26T15:04:14.626Z,98326.09
2019-03-26T15:06:16.213Z,98343.73
2019-03-26T15:08:17.796Z,98351.39
2019-03-26T15:10:19.413Z,98349.69
2019-03-26T15:12:21.062Z,98349.27
2019-03-26T15:14:22.644Z,98356.55
2019-03-26T15:16:24.227Z,98343.78
2019-03-26T15:18:25.806Z,98339.52
2019-03-26T15:20:27.424Z,98338.63
2019-03-26T15:22:29.010Z,98340.33
2019-03-26T15:24:30.586Z,98345.82
2019-03-26T15:26:32.168Z,98358.16
2019-03-26T15:28:33.752Z,98349.69
2019-03-26T15:30:35.358Z,98354.80
2019-03-26T15:32:36.948Z,98350.55
2019-03-26T15:34:38.564Z,98352.20
2019-03-26T15:36:40.156Z,98369.03
2019-03-26T15:38:41.749Z,98352.09
2019-03-26T15:40:43.400Z,98359.97
2019-03-26T15:42:44.988Z,98357.80
2019-03-26T15:44:46.664Z,98358.16
2019-03-26T15:46:48.230Z,98359.39
2019-03-26T15:48:49.815Z,98353.80
2019-03-26T15:50:51.422Z,98351.23
2019-03-26T15:52:53.005Z,98357.58
2019-03-26T15:54:54.632Z,98344.79
2019-03-26T15:56:56.207Z,98338.77
2019-03-26T15:58:57.787Z,98346.02
2019-03-26T16:00:59.408Z,98331.16
2019-03-26T16:03:00.996Z,98340.05
2019-03-26T16:05:02.616Z,98345.13
2019-03-26T16:07:04.186Z,98346.77
2019-03-26T16:09:05.768Z,98339.81
2019-03-26T16:11:08.500Z,98342.55
2019-03-26T16:13:10.108Z,98339.98
2019-03-26T16:15:11.783Z,98331.67
2019-03-26T16:17:13.504Z,98335.34
2019-03-26T16:19:17.905Z,98347.91
2019-03-26T16:21:16.752Z,98344.10
2019-03-26T16:23:18.340Z,98338.36
2019-03-26T16:25:19.924Z,98340.69
2019-03-26T16:27:21.509Z,98341.25
2019-03-26T16:29:25.936Z,98347.10
2019-03-26T16:31:24.728Z,98348.61
2019-03-26T16:33:26.313Z,98350.56
2019-03-26T16:35:27.895Z,98346.73
2019-03-26T16:37:29.466Z,98341.78
2019-03-26T16:39:31.082Z,98348.17
2019-03-26T16:41:32.691Z,98350.38
2019-03-26T16:43:34.281Z,98349.67
2019-03-26T16:45:35.907Z,98351.51
2019-03-26T16:47:37.499Z,98354.53
2019-03-26T16:49:39.084Z,98353.23
2019-03-26T16:51:40.697Z,98354.14
2019-03-26T16:53:42.281Z,98353.23
2019-03-26T16:55:44.047Z,98349.05
2019-03-26T16:57:45.626Z,98322.77
2019-03-26T16:59:47.248Z,98347.45
2019-03-26T17:01:48.852Z,98346.55
2019-03-26T17:03:50.527Z,98340.21
2019-03-26T17:05:52.209Z,98339.46
2019-03-26T17:07:53.898Z,98298.34
2019-03-26T17:09:55.484Z,98335.80
2019-03-26T17:12:03.087Z,98345.84
2019-03-26T17:13:58.732Z,98342.77
2019-03-26T17:16:00.317Z,98337.23
2019-03-26T17:18:01.912Z,98341.96
2019-03-26T17:20:03.508Z,98328.94
2019-03-26T17:22:05.100Z,98359.27
2019-03-26T17:24:06.674Z,98362.29
2019-03-26T17:26:08.256Z,98360.38
2019-03-26T17:28:09.841Z,98365.06
2019-03-26T17:30:11.420Z,98363.34
2019-03-26T17:32:13.012Z,98366.66
2019-03-26T17:34:14.586Z,98363.75
2019-03-26T17:36:16.234Z,98367.23
2019-03-26T17:38:17.826Z,98363.79
2019-03-26T17:40:19.420Z,98375.34
2019-03-26T17:42:21.008Z,98390.27
2019-03-26T17:44:22.596Z,98379.97
2019-03-26T17:46:24.180Z,98395.40
2019-03-26T17:48:25.800Z,98406.15
2019-03-26T17:50:27.392Z,98408.09
2019-03-26T17:52:28.980Z,98411.34
2019-03-26T17:54:30.567Z,98410.32
2019-03-26T17:56:32.153Z,98426.67
2019-03-26T17:58:33.776Z,98421.29
2019-03-26T18:00:35.360Z,98436.75
2019-03-26T18:02:36.963Z,98441.14
2019-03-26T18:04:38.544Z,98447.86
2019-03-26T18:06:40.128Z,98444.00
2019-03-26T18:08:41.733Z,98456.28
2019-03-26T18:10:43.320Z,98456.90
2019-03-26T18:12:46.645Z,98456.05
2019-03-26T18:14:46.556Z,98459.23
2019-03-26T18:16:48.144Z,98463.34
2019-03-26T18:18:49.724Z,98476.89
2019-03-26T18:20:51.364Z,98467.42
2019-03-26T18:22:52.954Z,98463.90
2019-03-26T18:24:54.541Z,98448.70
2019-03-26T18:26:56.111Z,98465.89
2019-03-26T18:28:57.732Z,98442.55
2019-03-26T18:30:59.308Z,98471.30
2019-03-26T18:33:00.892Z,98473.52
2019-03-26T18:35:02.496Z,98469.30
2019-03-26T18:37:04.089Z,98471.92
2019-03-26T18:39:05.688Z,98470.16
2019-03-26T18:41:07.282Z,98476.70
2019-03-26T18:43:09.036Z,98478.84
2019-03-26T18:45:10.632Z,98489.77
2019-03-26T18:47:12.220Z,98485.06
2019-03-26T18:49:13.942Z,98485.10
2019-03-26T18:51:15.542Z,98493.81
2019-03-26T18:53:17.136Z,98487.62
2019-03-26T18:55:18.755Z,98496.66
2019-03-26T18:57:20.339Z,98496.59
2019-03-26T18:59:21.932Z,98495.38
2019-03-26T19:01:23.506Z,98488.20
2019-03-26T19:03:25.140Z,98487.34
2019-03-26T19:05:26.715Z,98497.31
2019-03-26T19:07:28.351Z,98502.13
2019-03-26T19:09:29.936Z,98505.56
2019-03-26T19:11:31.559Z,98511.97
2019-03-26T19:13:33.185Z,98510.77
2019-03-26T19:15:34.770Z,98516.36
2019-03-26T19:17:36.347Z,98511.25
2019-03-26T19:19:37.923Z,98513.89
2019-03-26T19:21:39.498Z,98515.19
2019-03-26T19:23:41.120Z,98509.22
2019-03-26T19:25:42.716Z,98510.70
2019-03-26T19:27:44.412Z,98515.59
2019-03-26T19:29:46.074Z,98533.80
2019-03-26T19:31:47.680Z,98515.67
2019-03-26T19:33:49.975Z,98514.94
2019-03-26T19:35:51.609Z,98515.93
2019-03-26T19:37:53.205Z,98519.88
2019-03-26T19:39:54.856Z,98517.88
2019-03-26T19:41:56.465Z,98521.00
2019-03-26T19:43:58.068Z,98519.77
2019-03-26T19:45:59.700Z,98517.73
2019-03-26T19:48:01.280Z,98522.44
2019-03-26T19:50:02.865Z,98529.75
2019-03-26T19:52:04.435Z,98528.90
2019-03-26T19:54:06.023Z,98537.81
2019-03-26T19:56:07.592Z,98535.55
2019-03-26T19:58:09.216Z,98535.77
2019-03-26T20:00:10.807Z,98528.79
2019-03-26T20:02:12.392Z,98535.45
2019-03-26T20:04:14.029Z,98539.22
2019-03-26T20:06:15.609Z,98537.47
2019-03-26T20:08:17.196Z,98541.72
2019-03-26T20:10:18.953Z,98547.17
2019-03-26T20:12:20.615Z,98540.69
2019-03-26T20:14:22.404Z,98531.42
2019-03-26T20:16:27.100Z,98548.70
2019-03-26T20:18:25.624Z,98548.63
2019-03-26T20:20:27.835Z,98555.77
2019-03-26T20:22:29.424Z,98561.73
2019-03-26T20:24:31.032Z,98544.41
2019-03-26T20:26:32.655Z,98567.67
2019-03-26T20:28:34.277Z,98567.24
2019-03-26T20:30:35.897Z,98559.17
2019-03-26T20:32:37.529Z,98559.55
2019-03-26T20:34:39.111Z,98567.72
2019-03-26T20:36:40.728Z,98569.84
2019-03-26T20:38:42.316Z,98580.91
2019-03-26T20:40:43.922Z,98573.20
2019-03-26T20:42:45.505Z,98555.59
2019-03-26T20:44:47.088Z,98574.08
2019-03-26T20:46:48.732Z,98575.80
2019-03-26T20:48:50.394Z,98579.70
2019-03-26T20:50:52.244Z,98583.55
2019-03-26T20:52:53.901Z,98590.84
2019-03-26T20:54:55.611Z,98536.31
2019-03-26T20:56:57.252Z,98589.14
2019-03-26T20:58:58.876Z,98594.70
2019-03-26T21:01:00.507Z,98589.16
2019-03-26T21:03:02.078Z,98587.01
2019-03-26T21:05:03.669Z,98581.19
2019-03-26T21:07:05.288Z,98583.18
2019-03-26T21:09:06.876Z,98595.42
2019-03-26T21:11:08.491Z,98598.42
2019-03-26T21:13:10.071Z,98593.61
2019-03-26T21:15:11.642Z,98597.02
2019-03-26T21:17:13.260Z,98597.33
2019-03-26T21:19:14.844Z,98596.89
2019-03-26T21:21:16.533Z,98600.26
2019-03-26T21:23:18.119Z,98599.53
2019-03-26T21:25:19.699Z,98603.01
2019-03-26T21:27:21.284Z,98605.08
2019-03-26T21:29:22.854Z,98609.80
2019-03-26T21:31:24.901Z,98604.38
2019-03-26T21:33:26.492Z,98610.00
2019-03-26T21:35:29.078Z,98613.48
2019-03-26T21:37:29.744Z,98615.14
2019-03-26T21:39:31.353Z,98616.11
2019-03-26T21:41:32.988Z,98620.54
2019-03-26T21:43:34.569Z,98632.70
2019-03-26T21:45:36.178Z,98625.39
2019-03-26T21:47:37.768Z,98624.15
2019-03-26T21:49:39.352Z,98623.30
2019-03-26T21:51:40.959Z,98627.57
2019-03-26T21:53:42.544Z,98625.02
2019-03-26T21:55:44.132Z,98627.64
2019-03-26T21:57:45.715Z,98631.61
2019-03-26T21:59:47.283Z,98641.39
2019-03-26T22:01:48.869Z,98647.60
2019-03-26T22:03:50.459Z,98640.76
2019-03-26T22:05:52.040Z,98648.39
2019-03-26T22:07:53.624Z,98641.61
2019-03-26T22:09:55.203Z,98642.28
2019-03-26T22:11:56.774Z,98637.28
2019-03-26T22:13:58.342Z,98645.05
2019-03-26T22:15:59.928Z,98636.72
2019-03-26T22:18:01.573Z,98647.98
2019-03-26T22:20:03.176Z,98646.79
2019-03-26T22:22:04.772Z,98654.61
2019-03-26T22:24:06.407Z,98657.32
2019-03-26T22:26:07.987Z,98646.50
2019-03-26T22:28:09.573Z,98616.70
2019-03-26T22:30:11.141Z,98665.39
2019-03-26T22:32:12.768Z,98668.17
2019-03-26T22:34:14.353Z,98661.41
2019-03-26T22:36:15.935Z,98658.65
2019-03-26T22:38:17.520Z,98654.24
2019-03-26T22:40:20.129Z,98666.91
2019-03-26T22:42:21.752Z,98671.71
2019-03-26T22:44:31.176Z,98668.80
2019-03-26T22:46:24.972Z,98672.64
2019-03-26T22:48:26.556Z,98671.03
2019-03-26T22:50:28.127Z,98664.89
2019-03-26T22:52:29.708Z,98668.24
2019-03-26T22:54:31.292Z,98666.16
2019-03-26T22:56:32.880Z,98670.58
2019-03-26T22:58:34.471Z,98671.75
2019-03-26T23:00:36.043Z,98671.88
2019-03-26T23:02:37.628Z,98674.94
2019-03-26T23:04:39.232Z,98669.23
2019-03-26T23:06:40.876Z,98670.33
2019-03-26T23:08:42.481Z,98671.50
2019-03-26T23:10:44.068Z,98670.70
2019-03-26T23:12:45.652Z,98678.63
2019-03-26T23:14:47.236Z,98675.05
2019-03-26T23:16:48.850Z,98683.45
2019-03-26T23:18:50.432Z,98686.27
2019-03-26T23:20:52.016Z,98681.05
2019-03-26T23:22:53.608Z,98688.55
2019-03-26T23:24:55.204Z,98679.06
2019-03-26T23:26:56.818Z,98694.28
2019-03-26T23:28:58.401Z,98691.20
2019-03-26T23:30:59.982Z,98688.98
2019-03-26T23:33:01.860Z,98687.22
2019-03-26T23:35:03.444Z,98687.59
2019-03-26T23:37:05.073Z,98678.90
2019-03-26T23:39:06.656Z,98683.66
2019-03-26T23:41:08.223Z,98682.42
2019-03-26T23:43:09.812Z,98692.72
2019-03-26T23:45:11.396Z,98691.11
2019-03-26T23:47:13.002Z,98695.38
2019-03-26T23:49:14.575Z,98696.66